createdAt,value
2022-08-16T00:00:49.061Z,17.42
2022-08-16T00:01:48.031Z,17.35
2022-08-16T00:02:48.237Z,17.29
2022-08-16T00:03:48.008Z,17.39
2022-08-16T00:04:47.995Z,17.35
2022-08-16T00:05:48.973Z,17.29
2022-08-16T00:06:48.975Z,17.30
2022-08-16T00:07:47.959Z,17.26
2022-08-16T00:08:47.958Z,17.16
2022-08-16T00:09:47.947Z,17.08
2022-08-16T00:10:47.933Z,17.06
2022-08-16T00:11:47.957Z,17.02
2022-08-16T00:12:48.055Z,16.93
2022-08-16T00:13:53.803Z,16.99
2022-08-16T00:14:48.905Z,16.89
2022-08-16T00:15:51.827Z,16.83
2022-08-16T00:17:00.777Z,16.84
2022-08-16T00:17:56.612Z,16.87
2022-08-16T00:18:48.876Z,16.83
2022-08-16T00:19:53.380Z,16.71
2022-08-16T00:20:48.863Z,16.83
2022-08-16T00:21:53.170Z,16.82
2022-08-16T00:22:48.972Z,16.66
2022-08-16T00:23:47.845Z,16.72
2022-08-16T00:24:47.821Z,16.75
2022-08-16T00:26:34.498Z,16.74
2022-08-16T00:26:48.834Z,16.76
2022-08-16T00:27:47.801Z,16.82
2022-08-16T00:28:47.792Z,16.69
2022-08-16T00:30:09.057Z,16.66
2022-08-16T00:30:48.775Z,16.71
2022-08-16T00:32:01.197Z,16.72
2022-08-16T00:32:48.978Z,16.62
2022-08-16T00:33:50.003Z,16.79
2022-08-16T00:34:53.567Z,16.72
2022-08-16T00:35:49.819Z,16.72
2022-08-16T00:36:47.755Z,16.69
2022-08-16T00:37:58.628Z,16.64
2022-08-16T00:38:48.717Z,16.65
2022-08-16T00:39:56.986Z,16.59
2022-08-16T00:40:53.533Z,16.61
2022-08-16T00:41:48.734Z,16.56
2022-08-16T00:42:47.753Z,16.50
2022-08-16T00:43:48.670Z,16.54
2022-08-16T00:44:47.681Z,16.51
2022-08-16T00:45:58.053Z,16.49
2022-08-16T00:46:52.896Z,16.57
2022-08-16T00:47:49.615Z,16.51
2022-08-16T00:48:47.634Z,16.50
2022-08-16T00:49:56.648Z,16.51
2022-08-16T00:50:48.610Z,16.47
2022-08-16T00:51:53.774Z,16.47
2022-08-16T00:52:50.909Z,16.44
2022-08-16T00:53:47.600Z,16.38
2022-08-16T00:54:47.585Z,16.31
2022-08-16T00:55:47.565Z,16.44
2022-08-16T00:56:57.824Z,16.44
2022-08-16T00:58:00.035Z,16.39
2022-08-16T00:58:48.544Z,16.51
2022-08-16T00:59:59.024Z,16.46
2022-08-16T01:00:54.362Z,16.51
2022-08-16T01:01:48.559Z,16.47
2022-08-16T01:02:48.908Z,16.54
2022-08-16T01:03:47.508Z,16.53
2022-08-16T01:05:09.413Z,16.59
2022-08-16T01:05:48.480Z,16.62
2022-08-16T01:06:49.321Z,16.59
2022-08-16T01:07:51.193Z,16.61
2022-08-16T01:08:47.471Z,16.59
2022-08-16T01:09:47.451Z,16.51
2022-08-16T01:10:47.445Z,16.53
2022-08-16T01:11:54.143Z,16.54
2022-08-16T01:12:48.602Z,16.61
2022-08-16T01:13:47.421Z,16.59
2022-08-16T01:14:47.411Z,16.59
2022-08-16T01:15:47.400Z,16.66
2022-08-16T01:16:48.422Z,16.68
2022-08-16T01:17:47.381Z,16.68
2022-08-16T01:18:48.381Z,16.74
2022-08-16T01:19:47.366Z,16.65
2022-08-16T01:20:47.369Z,16.64
2022-08-16T01:21:47.372Z,16.65
2022-08-16T01:22:50.107Z,16.61
2022-08-16T01:24:00.807Z,16.49
2022-08-16T01:24:55.491Z,16.49
2022-08-16T01:25:59.807Z,16.53
2022-08-16T01:26:48.312Z,16.51
2022-08-16T01:27:47.329Z,16.41
2022-08-16T01:28:47.286Z,16.39
2022-08-16T01:29:58.181Z,16.26
2022-08-16T01:30:49.600Z,16.15
2022-08-16T01:31:47.276Z,16.17
2022-08-16T01:32:47.416Z,16.15
2022-08-16T01:33:49.715Z,16.08
2022-08-16T01:34:53.684Z,16.09
2022-08-16T01:35:52.859Z,16.06
2022-08-16T01:36:48.228Z,15.94
2022-08-16T01:37:54.046Z,16.02
2022-08-16T01:38:51.254Z,15.92
2022-08-16T01:39:48.243Z,15.88
2022-08-16T01:40:47.202Z,15.80
2022-08-16T01:41:47.199Z,15.77
2022-08-16T01:42:48.070Z,15.79
2022-08-16T01:43:47.168Z,15.76
2022-08-16T01:44:48.155Z,15.73
2022-08-16T01:45:47.149Z,15.69
2022-08-16T01:46:48.155Z,15.68
2022-08-16T01:47:49.579Z,15.77
2022-08-16T01:48:47.127Z,15.70
2022-08-16T01:50:42.430Z,15.70
2022-08-16T01:51:09.168Z,15.68
2022-08-16T01:51:48.091Z,15.60
2022-08-16T01:52:47.183Z,15.62
2022-08-16T01:53:55.294Z,15.60
2022-08-16T01:54:48.074Z,15.60
2022-08-16T01:55:54.040Z,15.54
2022-08-16T01:56:48.054Z,15.57
2022-08-16T01:57:53.478Z,15.62
2022-08-16T01:58:48.287Z,15.69
2022-08-16T01:59:47.028Z,15.61
2022-08-16T02:00:47.026Z,15.60
2022-08-16T02:01:49.606Z,15.62
2022-08-16T02:02:52.318Z,15.69
2022-08-16T02:03:50.360Z,15.68
2022-08-16T02:04:49.725Z,15.72
2022-08-16T02:05:52.028Z,15.72
2022-08-16T02:06:47.969Z,15.70
2022-08-16T02:07:46.989Z,15.69
2022-08-16T02:08:46.948Z,15.68
2022-08-16T02:09:57.457Z,15.73
2022-08-16T02:10:47.935Z,15.69
2022-08-16T02:11:48.520Z,15.60
2022-08-16T02:12:52.548Z,15.54
2022-08-16T02:13:48.917Z,15.52
2022-08-16T02:14:47.898Z,15.42
2022-08-16T02:15:46.888Z,15.48
2022-08-16T02:16:46.891Z,15.40
2022-08-16T02:17:46.902Z,15.40
2022-08-16T02:18:47.874Z,15.36
2022-08-16T02:19:59.813Z,15.32
2022-08-16T02:20:47.846Z,15.25
2022-08-16T02:22:09.354Z,15.30
2022-08-16T02:22:48.188Z,15.18
2022-08-16T02:23:46.827Z,15.21
2022-08-16T02:24:47.817Z,15.19
2022-08-16T02:25:52.350Z,15.17
2022-08-16T02:26:48.807Z,15.14
2022-08-16T02:27:47.951Z,15.18
2022-08-16T02:28:47.112Z,15.14
2022-08-16T02:29:46.776Z,15.21
2022-08-16T02:30:50.800Z,15.21
2022-08-16T02:32:03.717Z,15.17
2022-08-16T02:32:50.819Z,15.19
2022-08-16T02:33:50.000Z,15.21
2022-08-16T02:34:46.734Z,15.19
2022-08-16T02:35:53.970Z,15.18
2022-08-16T02:36:50.868Z,15.22
2022-08-16T02:37:52.338Z,15.24
2022-08-16T02:38:47.724Z,15.24
2022-08-16T02:39:46.739Z,15.19
2022-08-16T02:40:47.691Z,15.24
2022-08-16T02:41:46.677Z,15.19
2022-08-16T02:42:49.677Z,15.24
2022-08-16T02:43:46.683Z,15.27
2022-08-16T02:44:46.660Z,15.30
2022-08-16T02:45:46.633Z,15.19
2022-08-16T02:46:50.585Z,15.22
2022-08-16T02:48:00.116Z,15.22
2022-08-16T02:48:49.391Z,15.18
2022-08-16T02:49:59.320Z,15.19
2022-08-16T02:50:55.332Z,15.21
2022-08-16T02:51:47.587Z,15.14
2022-08-16T02:52:46.631Z,15.09
2022-08-16T02:53:46.652Z,15.07
2022-08-16T02:54:46.604Z,15.09
2022-08-16T02:55:50.526Z,15.04
2022-08-16T02:56:47.855Z,14.97
2022-08-16T02:57:54.174Z,14.95
2022-08-16T02:58:47.654Z,15.00
2022-08-16T02:59:46.512Z,14.95
2022-08-16T03:00:50.068Z,14.99
2022-08-16T03:01:46.579Z,14.97
2022-08-16T03:02:46.744Z,15.00
2022-08-16T03:04:29.125Z,14.99
2022-08-16T03:04:52.574Z,14.91
2022-08-16T03:05:49.844Z,14.97
2022-08-16T03:06:46.465Z,14.89
2022-08-16T03:07:51.032Z,14.97
2022-08-16T03:08:51.848Z,15.02
2022-08-16T03:09:47.428Z,14.95
2022-08-16T03:10:46.448Z,15.06
2022-08-16T03:11:46.414Z,15.07
2022-08-16T03:12:55.645Z,15.02
2022-08-16T03:13:47.610Z,14.99
2022-08-16T03:14:46.390Z,15.02
2022-08-16T03:15:46.390Z,15.04
2022-08-16T03:16:58.677Z,15.09
2022-08-16T03:17:53.745Z,15.00
2022-08-16T03:18:47.381Z,15.07
2022-08-16T03:19:48.028Z,15.02
2022-08-16T03:20:55.452Z,14.97
2022-08-16T03:21:47.321Z,14.89
2022-08-16T03:22:46.442Z,14.95
2022-08-16T03:23:46.339Z,14.96
2022-08-16T03:24:46.322Z,14.95
2022-08-16T03:25:48.431Z,15.02
2022-08-16T03:26:46.300Z,15.00
2022-08-16T03:27:46.276Z,14.89
2022-08-16T03:28:46.344Z,14.89
2022-08-16T03:29:54.714Z,15.00
2022-08-16T03:30:47.442Z,14.99
2022-08-16T03:31:46.244Z,15.00
2022-08-16T03:32:47.989Z,14.96
2022-08-16T03:33:46.257Z,15.03
2022-08-16T03:34:49.883Z,14.99
2022-08-16T03:35:46.203Z,15.15
2022-08-16T03:36:46.255Z,15.14
2022-08-16T03:38:02.873Z,15.11
2022-08-16T03:38:47.219Z,15.14
2022-08-16T03:39:46.202Z,15.11
2022-08-16T03:40:46.170Z,15.04
2022-08-16T03:41:50.241Z,15.14
2022-08-16T03:43:18.648Z,15.03
2022-08-16T03:43:51.379Z,15.14
2022-08-16T03:44:49.515Z,15.04
2022-08-16T03:45:46.143Z,14.99
2022-08-16T03:46:49.914Z,14.89
2022-08-16T03:47:46.106Z,14.97
2022-08-16T03:48:46.122Z,14.95
2022-08-16T03:49:46.082Z,14.93
2022-08-16T03:50:59.499Z,14.96
2022-08-16T03:51:47.070Z,14.96
2022-08-16T03:52:46.224Z,14.93
2022-08-16T03:53:46.086Z,14.89
2022-08-16T03:54:53.264Z,14.89
2022-08-16T03:55:47.051Z,14.93
2022-08-16T03:56:56.997Z,14.93
2022-08-16T03:57:52.161Z,15.11
2022-08-16T03:58:48.443Z,14.91
2022-08-16T03:59:46.001Z,14.91
2022-08-16T04:00:46.067Z,14.95
2022-08-16T04:01:46.002Z,14.95
2022-08-16T04:02:47.128Z,14.81
2022-08-16T04:03:46.014Z,14.77
2022-08-16T04:04:46.004Z,14.78
2022-08-16T04:05:46.986Z,14.62
2022-08-16T04:06:45.947Z,14.68
2022-08-16T04:07:45.938Z,14.74
2022-08-16T04:08:45.962Z,14.69
2022-08-16T04:09:45.922Z,14.77
2022-08-16T04:10:45.919Z,14.91
2022-08-16T04:11:47.911Z,14.95
2022-08-16T04:12:53.244Z,14.97
2022-08-16T04:14:00.192Z,15.00
2022-08-16T04:14:48.222Z,15.11
2022-08-16T04:15:45.868Z,15.04
2022-08-16T04:16:45.858Z,15.04
2022-08-16T04:17:45.849Z,15.07
2022-08-16T04:18:46.136Z,15.11
2022-08-16T04:19:46.461Z,15.14
2022-08-16T04:20:45.827Z,15.14
2022-08-16T04:21:47.630Z,15.04
2022-08-16T04:22:45.856Z,15.00
2022-08-16T04:23:45.795Z,14.99
2022-08-16T04:24:54.361Z,14.97
2022-08-16T04:25:47.030Z,15.04
2022-08-16T04:26:46.573Z,15.00
2022-08-16T04:27:54.363Z,15.11
2022-08-16T04:28:53.630Z,15.14
2022-08-16T04:29:46.777Z,15.00
2022-08-16T04:30:46.737Z,15.09
2022-08-16T04:31:45.762Z,15.11
2022-08-16T04:32:49.177Z,15.11
2022-08-16T04:33:51.249Z,15.21
2022-08-16T04:34:46.734Z,15.28
2022-08-16T04:35:49.516Z,15.40
2022-08-16T04:36:45.687Z,15.51
2022-08-16T04:37:45.675Z,15.72
2022-08-16T04:38:45.669Z,15.73
2022-08-16T04:39:55.103Z,15.80
2022-08-16T04:40:46.740Z,15.90
2022-08-16T04:41:45.649Z,15.90
2022-08-16T04:42:45.632Z,15.95
2022-08-16T04:43:45.638Z,16.02
2022-08-16T04:44:53.508Z,16.12
2022-08-16T04:45:46.603Z,16.26
2022-08-16T04:47:02.458Z,16.38
2022-08-16T04:47:46.609Z,16.64
2022-08-16T04:48:46.593Z,16.62
2022-08-16T04:49:46.334Z,16.64
2022-08-16T04:50:45.570Z,16.65
2022-08-16T04:51:45.566Z,16.68
2022-08-16T04:52:46.571Z,16.68
2022-08-16T04:53:45.550Z,16.65
2022-08-16T04:54:45.575Z,16.87
2022-08-16T04:55:45.532Z,16.71
2022-08-16T04:56:46.229Z,16.74
2022-08-16T04:57:45.510Z,16.76
2022-08-16T04:58:47.120Z,16.86
2022-08-16T04:59:46.555Z,16.89
2022-08-16T05:00:45.484Z,16.84
2022-08-16T05:01:57.910Z,16.98
2022-08-16T05:02:46.503Z,17.20
2022-08-16T05:04:00.994Z,17.57
2022-08-16T05:04:46.503Z,17.95
2022-08-16T05:05:58.974Z,18.15
2022-08-16T05:06:46.437Z,18.01
2022-08-16T05:07:58.390Z,17.76
2022-08-16T05:08:47.272Z,17.54
2022-08-16T05:09:49.135Z,17.30
2022-08-16T05:10:45.407Z,17.05
2022-08-16T05:11:45.402Z,16.99
2022-08-16T05:12:45.393Z,17.24
2022-08-16T05:13:45.378Z,17.68
2022-08-16T05:15:01.697Z,17.89
2022-08-16T05:15:46.374Z,17.98
2022-08-16T05:16:45.352Z,18.04
2022-08-16T05:17:45.348Z,18.15
2022-08-16T05:18:45.341Z,18.23
2022-08-16T05:19:46.817Z,18.48
2022-08-16T05:21:01.729Z,18.62
2022-08-16T05:21:46.394Z,18.81
2022-08-16T05:22:45.523Z,19.14
2022-08-16T05:23:51.776Z,19.39
2022-08-16T05:24:47.315Z,19.33
2022-08-16T05:25:48.274Z,19.42
2022-08-16T05:26:51.564Z,19.31
2022-08-16T05:27:46.273Z,19.23
2022-08-16T05:28:45.266Z,19.48
2022-08-16T05:29:59.256Z,19.71
2022-08-16T05:30:50.362Z,19.78
2022-08-16T05:31:48.401Z,19.99
2022-08-16T05:32:47.543Z,20.04
2022-08-16T05:33:45.224Z,19.91
2022-08-16T05:34:46.249Z,20.04
2022-08-16T05:35:54.799Z,20.01
2022-08-16T05:36:46.208Z,20.29
2022-08-16T05:37:45.186Z,20.47
2022-08-16T05:38:45.179Z,20.75
2022-08-16T05:39:45.230Z,20.90
2022-08-16T05:40:57.124Z,21.17
2022-08-16T05:41:46.158Z,21.20
2022-08-16T05:42:47.763Z,21.11
2022-08-16T05:43:47.566Z,21.22
2022-08-16T05:44:45.162Z,21.27
2022-08-16T05:45:45.125Z,21.33
2022-08-16T05:46:46.121Z,21.61
2022-08-16T05:47:45.117Z,21.74
2022-08-16T05:48:45.101Z,21.72
2022-08-16T05:49:46.122Z,21.93
2022-08-16T05:50:45.083Z,21.96
2022-08-16T05:51:46.101Z,22.44
2022-08-16T05:52:45.114Z,22.59
2022-08-16T05:53:45.069Z,22.60
2022-08-16T05:54:47.770Z,22.84
2022-08-16T05:55:46.078Z,22.88
2022-08-16T05:56:45.029Z,22.80
2022-08-16T05:57:45.022Z,22.58
2022-08-16T05:58:46.014Z,22.60
2022-08-16T05:59:45.004Z,22.66
2022-08-16T06:00:45.030Z,22.80
2022-08-16T06:01:45.033Z,22.81
2022-08-16T06:02:45.024Z,22.80
2022-08-16T06:03:44.981Z,22.88
2022-08-16T06:04:45.663Z,22.77
2022-08-16T06:05:44.998Z,22.59
2022-08-16T06:06:56.175Z,22.68
2022-08-16T06:07:45.946Z,22.78
2022-08-16T06:08:46.569Z,22.91
2022-08-16T06:09:44.925Z,23.14
2022-08-16T06:11:10.519Z,23.24
2022-08-16T06:11:45.906Z,23.41
2022-08-16T06:12:44.908Z,23.65
2022-08-16T06:13:44.937Z,24.08
2022-08-16T06:14:44.879Z,24.23
2022-08-16T06:15:44.957Z,24.11
2022-08-16T06:16:44.863Z,24.28
2022-08-16T06:17:45.852Z,23.93
2022-08-16T06:18:44.850Z,23.92
2022-08-16T06:19:44.836Z,23.89
2022-08-16T06:20:55.456Z,23.99
2022-08-16T06:21:45.827Z,24.36
2022-08-16T06:22:47.850Z,24.51
2022-08-16T06:23:45.813Z,24.57
2022-08-16T06:24:53.621Z,24.50
2022-08-16T06:25:52.893Z,24.32
2022-08-16T06:26:57.460Z,24.74
2022-08-16T06:27:57.484Z,24.95
2022-08-16T06:28:45.765Z,25.25
2022-08-16T06:29:50.054Z,25.37
2022-08-16T06:30:45.787Z,25.82
2022-08-16T06:31:48.757Z,25.37
2022-08-16T06:32:48.578Z,25.32
2022-08-16T06:33:45.132Z,25.35
2022-08-16T06:34:56.683Z,25.29
2022-08-16T06:35:45.735Z,25.33
2022-08-16T06:36:44.705Z,25.50
2022-08-16T06:37:47.519Z,25.40
2022-08-16T06:38:55.791Z,25.53
2022-08-16T06:39:49.832Z,25.96
2022-08-16T06:40:45.856Z,26.20
2022-08-16T06:41:44.693Z,26.50
2022-08-16T06:42:47.995Z,26.30
2022-08-16T06:43:44.645Z,26.22
2022-08-16T06:44:44.638Z,26.38
2022-08-16T06:45:44.663Z,26.62
2022-08-16T06:46:44.633Z,27.02
2022-08-16T06:47:53.339Z,27.09
2022-08-16T06:48:49.646Z,27.12
2022-08-16T06:49:53.862Z,27.29
2022-08-16T06:50:45.632Z,27.09
2022-08-16T06:51:46.612Z,27.12
2022-08-16T06:52:57.566Z,27.12
2022-08-16T06:53:45.559Z,27.55
2022-08-16T06:54:49.814Z,27.85
2022-08-16T06:55:45.583Z,27.39
2022-08-16T06:56:44.537Z,27.15
2022-08-16T06:57:44.539Z,27.15
2022-08-16T06:58:44.986Z,27.30
2022-08-16T06:59:52.273Z,27.42
2022-08-16T07:00:45.591Z,27.55
2022-08-16T07:01:54.587Z,27.70
2022-08-16T07:02:51.813Z,27.89
2022-08-16T07:03:55.241Z,27.87
2022-08-16T07:04:45.482Z,27.89
2022-08-16T07:05:44.512Z,27.55
2022-08-16T07:06:44.958Z,27.90
2022-08-16T07:07:44.459Z,28.08
2022-08-16T07:08:44.451Z,28.63
2022-08-16T07:09:44.449Z,29.31
2022-08-16T07:10:44.474Z,29.97
2022-08-16T07:11:48.026Z,29.84
2022-08-16T07:12:47.336Z,29.62
2022-08-16T07:14:00.333Z,29.75
2022-08-16T07:14:46.419Z,29.85
2022-08-16T07:15:50.638Z,30.00
2022-08-16T07:16:45.403Z,30.09
2022-08-16T07:17:44.380Z,30.09
2022-08-16T07:18:58.653Z,30.18
2022-08-16T07:20:29.532Z,29.90
2022-08-16T07:20:47.259Z,29.75
2022-08-16T07:21:46.516Z,29.02
2022-08-16T07:22:50.822Z,28.78
2022-08-16T07:23:45.378Z,29.01
2022-08-16T07:24:45.770Z,28.85
2022-08-16T07:25:44.316Z,29.44
2022-08-16T07:26:48.445Z,29.90
2022-08-16T07:27:44.303Z,30.51
2022-08-16T07:28:44.330Z,31.07
2022-08-16T07:29:44.298Z,31.21
2022-08-16T07:30:46.544Z,31.51
2022-08-16T07:31:44.328Z,31.51
2022-08-16T07:32:51.654Z,31.30
2022-08-16T07:33:52.173Z,30.96
2022-08-16T07:34:48.195Z,31.14
2022-08-16T07:35:49.464Z,31.41
2022-08-16T07:36:45.278Z,31.19
2022-08-16T07:37:45.222Z,31.43
2022-08-16T07:38:44.228Z,31.40
2022-08-16T07:39:44.258Z,31.63
2022-08-16T07:41:00.165Z,31.43
2022-08-16T07:41:46.224Z,31.55
2022-08-16T07:42:44.216Z,32.01
2022-08-16T07:43:44.179Z,31.34
2022-08-16T07:44:50.274Z,31.09
2022-08-16T07:45:49.446Z,31.31
2022-08-16T07:46:45.185Z,31.53
2022-08-16T07:47:44.160Z,31.38
2022-08-16T07:48:44.145Z,31.41
2022-08-16T07:49:53.393Z,31.75
2022-08-16T07:50:56.726Z,31.67
2022-08-16T07:51:45.144Z,31.90
2022-08-16T07:52:44.126Z,31.78
2022-08-16T07:53:44.096Z,31.59
2022-08-16T07:54:45.679Z,31.49
2022-08-16T07:55:47.689Z,31.09
2022-08-16T07:56:44.171Z,31.02
2022-08-16T07:57:55.885Z,31.30
2022-08-16T07:58:45.057Z,31.82
2022-08-16T07:59:45.953Z,31.94
2022-08-16T08:00:44.171Z,31.55
2022-08-16T08:01:45.080Z,31.46
2022-08-16T08:02:44.042Z,31.49
2022-08-16T08:03:48.457Z,31.25
2022-08-16T08:04:46.019Z,31.21
2022-08-16T08:05:44.004Z,30.99
2022-08-16T08:06:44.032Z,31.40
2022-08-16T08:07:45.306Z,31.22
2022-08-16T08:08:50.933Z,31.53
2022-08-16T08:09:45.925Z,31.87
2022-08-16T08:10:43.970Z,31.81
2022-08-16T08:12:00.717Z,31.91
2022-08-16T08:12:44.965Z,31.97
2022-08-16T08:13:43.962Z,31.80
2022-08-16T08:14:43.937Z,31.96
2022-08-16T08:15:52.629Z,31.67
2022-08-16T08:16:45.588Z,31.86
2022-08-16T08:17:44.207Z,31.82
2022-08-16T08:18:50.459Z,32.05
2022-08-16T08:19:44.904Z,32.47
2022-08-16T08:20:44.923Z,32.47
2022-08-16T08:21:59.559Z,32.60
2022-08-16T08:22:44.886Z,32.71
2022-08-16T08:23:43.873Z,32.83
2022-08-16T08:24:44.314Z,32.84
2022-08-16T08:25:53.643Z,33.17
2022-08-16T08:26:50.077Z,33.54
2022-08-16T08:27:44.205Z,33.55
2022-08-16T08:28:43.844Z,33.89
2022-08-16T08:29:43.833Z,34.45
2022-08-16T08:30:52.295Z,34.52
2022-08-16T08:31:44.841Z,34.40
2022-08-16T08:32:58.460Z,34.24
2022-08-16T08:33:47.313Z,33.62
2022-08-16T08:34:46.556Z,33.46
2022-08-16T08:35:43.790Z,33.74
2022-08-16T08:36:43.812Z,33.74
2022-08-16T08:37:54.044Z,34.00
2022-08-16T08:38:45.781Z,34.36
2022-08-16T08:39:55.262Z,34.14
2022-08-16T08:40:44.766Z,34.30
2022-08-16T08:41:43.804Z,34.47
2022-08-16T08:42:43.796Z,34.21
2022-08-16T08:43:43.762Z,34.34
2022-08-16T08:44:43.722Z,34.56
2022-08-16T08:45:47.215Z,34.63
2022-08-16T08:47:00.057Z,34.08
2022-08-16T08:47:44.705Z,33.66
2022-08-16T08:48:44.701Z,33.31
2022-08-16T08:49:55.045Z,33.63
2022-08-16T08:50:46.653Z,33.92
2022-08-16T08:51:44.693Z,34.42
2022-08-16T08:52:43.672Z,34.02
2022-08-16T08:53:43.654Z,34.67
2022-08-16T08:54:43.685Z,35.05
2022-08-16T08:55:43.649Z,34.94
2022-08-16T08:56:45.360Z,35.02
2022-08-16T08:57:43.651Z,34.67
2022-08-16T08:58:54.941Z,33.96
2022-08-16T08:59:44.621Z,33.81
2022-08-16T09:00:50.929Z,34.18
2022-08-16T09:01:56.509Z,34.26
2022-08-16T09:02:45.611Z,34.21
2022-08-16T09:03:44.628Z,34.26
2022-08-16T09:04:43.588Z,34.05
2022-08-16T09:05:44.138Z,34.20
2022-08-16T09:06:44.599Z,34.77
2022-08-16T09:08:01.650Z,34.45
2022-08-16T09:08:47.477Z,34.96
2022-08-16T09:09:43.568Z,35.68
2022-08-16T09:10:43.540Z,36.14
2022-08-16T09:11:43.560Z,35.48
2022-08-16T09:12:46.587Z,35.61
2022-08-16T09:13:47.234Z,35.28
2022-08-16T09:14:49.489Z,35.46
2022-08-16T09:15:44.502Z,35.64
2022-08-16T09:17:01.043Z,34.94
2022-08-16T09:17:51.548Z,34.58
2022-08-16T09:18:45.516Z,34.52
2022-08-16T09:19:43.483Z,34.86
2022-08-16T09:20:58.894Z,34.89
2022-08-16T09:21:44.491Z,34.97
2022-08-16T09:22:51.308Z,34.71
2022-08-16T09:23:44.446Z,34.90
2022-08-16T09:24:51.585Z,34.71
2022-08-16T09:25:44.433Z,35.21
2022-08-16T09:26:45.604Z,35.89
2022-08-16T09:27:57.311Z,35.84
2022-08-16T09:29:14.475Z,35.36
2022-08-16T09:29:45.667Z,35.38
2022-08-16T09:30:44.953Z,35.84
2022-08-16T09:31:43.405Z,35.73
2022-08-16T09:32:47.005Z,35.76
2022-08-16T09:33:43.388Z,35.20
2022-08-16T09:34:43.380Z,34.40
2022-08-16T09:35:43.370Z,34.86
2022-08-16T09:36:45.062Z,35.04
2022-08-16T09:37:43.391Z,34.79
2022-08-16T09:38:44.361Z,35.58
2022-08-16T09:39:46.991Z,35.48
2022-08-16T09:40:45.433Z,35.16
2022-08-16T09:41:43.335Z,35.09
2022-08-16T09:42:56.532Z,34.40
2022-08-16T09:43:58.122Z,34.12
2022-08-16T09:45:11.907Z,34.55
2022-08-16T09:45:44.303Z,34.29
2022-08-16T09:46:48.527Z,34.37
2022-08-16T09:47:56.785Z,34.11
2022-08-16T09:48:51.024Z,34.07
2022-08-16T09:49:44.283Z,33.90
2022-08-16T09:50:44.283Z,33.96
2022-08-16T09:51:43.264Z,34.42
2022-08-16T09:52:47.963Z,34.37
2022-08-16T09:53:44.259Z,33.61
2022-08-16T09:54:45.261Z,32.99
2022-08-16T09:55:44.665Z,33.46
2022-08-16T09:56:53.455Z,33.50
2022-08-16T09:57:53.175Z,34.17
2022-08-16T09:59:05.429Z,34.87
2022-08-16T09:59:44.209Z,35.30
2022-08-16T10:00:45.053Z,35.09
2022-08-16T10:01:43.592Z,34.55
2022-08-16T10:02:44.427Z,34.18
2022-08-16T10:04:02.084Z,33.61
2022-08-16T10:04:54.518Z,32.42
2022-08-16T10:05:45.166Z,32.11
2022-08-16T10:06:46.198Z,32.49
2022-08-16T10:07:44.967Z,33.05
2022-08-16T10:09:05.226Z,33.61
2022-08-16T10:09:53.707Z,34.22
2022-08-16T10:10:44.137Z,34.29
2022-08-16T10:11:50.080Z,34.08
2022-08-16T10:12:45.380Z,34.94
2022-08-16T10:13:43.114Z,35.09
2022-08-16T10:14:46.080Z,35.58
2022-08-16T10:15:43.106Z,35.27
2022-08-16T10:16:44.096Z,35.01
2022-08-16T10:17:43.113Z,35.02
2022-08-16T10:19:02.320Z,35.06
2022-08-16T10:19:44.080Z,34.58
2022-08-16T10:20:43.071Z,33.70
2022-08-16T10:21:43.075Z,32.77
2022-08-16T10:22:43.098Z,32.27
2022-08-16T10:23:43.317Z,31.90
2022-08-16T10:24:55.704Z,31.74
2022-08-16T10:27:16.210Z,31.31
2022-08-16T10:27:16.382Z,31.31
2022-08-16T10:27:56.853Z,32.13
2022-08-16T10:28:44.191Z,32.98
2022-08-16T10:30:01.329Z,33.16
2022-08-16T10:30:43.998Z,33.84
2022-08-16T10:31:44.171Z,34.24
2022-08-16T10:32:43.057Z,34.84
2022-08-16T10:33:42.971Z,35.38
2022-08-16T10:34:42.963Z,35.84
2022-08-16T10:35:46.565Z,35.75
2022-08-16T10:36:42.975Z,36.25
2022-08-16T10:37:43.037Z,36.36
2022-08-16T10:38:42.941Z,36.41
2022-08-16T10:39:42.982Z,36.59
2022-08-16T10:40:45.551Z,36.27
2022-08-16T10:41:42.924Z,36.52
2022-08-16T10:42:42.936Z,36.85
2022-08-16T10:43:42.914Z,36.78
2022-08-16T10:44:42.896Z,36.61
2022-08-16T10:45:43.896Z,36.49
2022-08-16T10:46:43.884Z,36.92
2022-08-16T10:47:42.910Z,37.36
2022-08-16T10:48:47.204Z,36.55
2022-08-16T10:49:43.862Z,36.44
2022-08-16T10:50:42.849Z,36.58
2022-08-16T10:52:01.141Z,36.15
2022-08-16T10:52:43.877Z,36.40
2022-08-16T10:53:42.829Z,36.68
2022-08-16T10:54:58.944Z,36.68
2022-08-16T10:55:46.103Z,35.39
2022-08-16T10:56:55.276Z,34.44
2022-08-16T10:57:43.911Z,35.16
2022-08-16T10:58:42.806Z,35.83
2022-08-16T10:59:51.901Z,36.27
2022-08-16T11:00:43.788Z,36.32
2022-08-16T11:01:44.002Z,36.41
2022-08-16T11:02:59.019Z,36.66
2022-08-16T11:03:45.794Z,36.41
2022-08-16T11:06:00.252Z,35.65
2022-08-16T11:07:06.598Z,35.86
2022-08-16T11:07:51.348Z,35.75
2022-08-16T11:08:45.773Z,36.61
2022-08-16T11:09:44.103Z,37.64
2022-08-16T11:11:04.532Z,37.02
2022-08-16T11:12:14.951Z,36.53
2022-08-16T11:12:44.767Z,36.40
2022-08-16T11:13:59.614Z,36.46
2022-08-16T11:15:49.819Z,37.30
2022-08-16T11:17:45.155Z,37.39
2022-08-16T11:19:02.886Z,37.33
2022-08-16T11:20:49.344Z,38.02
2022-08-16T11:22:48.744Z,38.02
2022-08-16T11:23:58.101Z,38.10
2022-08-16T11:24:45.143Z,38.03
2022-08-16T11:26:44.890Z,37.23
2022-08-16T11:27:43.644Z,37.19
2022-08-16T11:29:44.598Z,35.62
2022-08-16T11:30:42.594Z,36.28
2022-08-16T11:31:45.608Z,35.87
2022-08-16T11:32:42.604Z,35.83
2022-08-16T11:33:57.863Z,36.19
2022-08-16T11:35:09.868Z,35.76
2022-08-16T11:36:21.870Z,35.62
2022-08-16T11:36:53.907Z,35.64
2022-08-16T11:38:51.527Z,35.62
2022-08-16T11:39:43.594Z,35.50
2022-08-16T11:40:44.195Z,35.09
2022-08-16T11:41:43.545Z,34.86
2022-08-16T11:42:42.546Z,35.43
2022-08-16T11:43:42.535Z,35.73
2022-08-16T11:44:52.762Z,35.90
2022-08-16T11:45:43.515Z,36.12
2022-08-16T11:46:46.863Z,36.27
2022-08-16T11:47:42.507Z,36.04
2022-08-16T11:48:42.475Z,36.22
2022-08-16T11:49:42.482Z,36.40
2022-08-16T11:50:42.471Z,36.02
2022-08-16T11:51:42.458Z,36.25
2022-08-16T11:52:46.612Z,35.79
2022-08-16T11:53:42.453Z,35.99
2022-08-16T11:54:42.435Z,36.21
2022-08-16T11:55:44.221Z,36.49
2022-08-16T11:56:56.760Z,36.71
2022-08-16T11:57:43.545Z,37.30
2022-08-16T11:58:42.417Z,37.26
2022-08-16T11:59:43.404Z,37.59
2022-08-16T12:00:51.638Z,37.86
2022-08-16T12:01:55.226Z,37.68
2022-08-16T12:02:45.970Z,37.66
2022-08-16T12:03:42.430Z,37.18
2022-08-16T12:04:42.376Z,36.80
2022-08-16T12:05:42.373Z,36.89
2022-08-16T12:06:42.372Z,36.56
2022-08-16T12:07:42.378Z,36.77
2022-08-16T12:08:42.633Z,36.39
2022-08-16T12:09:43.546Z,36.96
2022-08-16T12:10:43.484Z,36.70
2022-08-16T12:11:43.721Z,36.81
2022-08-16T12:12:42.361Z,37.04
2022-08-16T12:13:42.322Z,37.71
2022-08-16T12:14:42.296Z,37.91
2022-08-16T12:15:42.311Z,37.96
2022-08-16T12:16:48.766Z,37.69
2022-08-16T12:17:43.430Z,37.71
2022-08-16T12:18:42.329Z,37.11
2022-08-16T12:19:42.280Z,37.37
2022-08-16T12:20:42.286Z,37.77
2022-08-16T12:21:58.143Z,37.15
2022-08-16T12:22:43.282Z,36.68
2022-08-16T12:23:42.248Z,36.96
2022-08-16T12:24:42.240Z,36.88
2022-08-16T12:25:42.233Z,37.29
2022-08-16T12:26:42.242Z,37.69
2022-08-16T12:27:42.488Z,38.25
2022-08-16T12:28:55.874Z,38.43
2022-08-16T12:29:43.325Z,37.93
2022-08-16T12:30:42.202Z,37.11
2022-08-16T12:32:00.457Z,37.39
2022-08-16T12:32:43.248Z,37.11
2022-08-16T12:33:44.879Z,36.89
2022-08-16T12:34:50.663Z,37.12
2022-08-16T12:35:43.214Z,37.04
2022-08-16T12:36:43.699Z,36.28
2022-08-16T12:37:42.207Z,35.94
2022-08-16T12:38:48.224Z,35.28
2022-08-16T12:39:50.626Z,35.27
2022-08-16T12:40:43.143Z,34.70
2022-08-16T12:41:45.096Z,34.18
2022-08-16T12:42:53.087Z,34.55
2022-08-16T12:43:45.096Z,34.36
2022-08-16T12:44:43.148Z,34.90
2022-08-16T12:45:43.530Z,34.96
2022-08-16T12:46:43.149Z,35.18
2022-08-16T12:47:42.100Z,35.62
2022-08-16T12:48:42.409Z,36.36
2022-08-16T12:49:42.530Z,36.21
2022-08-16T12:50:42.081Z,36.33
2022-08-16T12:51:59.776Z,36.51
2022-08-16T12:52:44.383Z,36.83
2022-08-16T12:53:43.115Z,36.95
2022-08-16T12:54:43.063Z,36.83
2022-08-16T12:55:43.838Z,36.83
2022-08-16T12:56:42.125Z,36.53
2022-08-16T12:57:42.031Z,36.28
2022-08-16T12:58:48.857Z,36.43
2022-08-16T12:59:43.011Z,36.55
2022-08-16T13:00:42.056Z,36.52